Mansville, Pennsylvania
Current Conditions -  °F | °C
As of 8:56 PM on Monday 20 Oct 2014 (Local Time) from KCXY Reporting Station
Light Rain Light Rain  
Wind Chill: 56°   Ceiling: 8500
Heat Index: 56°   Visibility: 10mi
Dew Point: 44°   Wind: 0mph
Humidity: 64%   Direction: NA
Pressure: 29.95"   Gusts: NA
Location:  40.3632°N, 77.2671°W
Report Text: KCXY 210056Z AUTO 00000KT 10SM -RA SCT070 BKN085 OVC110 13/07 A2995 RMK AO2 RAB50 SLP143 P0000 T01330067
Loading
Personal Weather Stations






























Interactive Weather Map
Tropical Storm Tracking
New forecast layout! Learn more

10-Day Weather Forecast

Advertisements
Track Severe Weather on mobile